Koyo Maru No.12 — JD2089 — position and weather

sailwx.info

Track history (hours):
 
Tides and Currents Weather Stations Pressure Air Temp Water Temp Dewpoint Dewpoint Depression Visibility Wind Speed Wind Dir Waves Ship Positions

Koyo Maru No.12

Last reported at 2018-Jul-22 11:50 UTC. Time now 2018-Jul-22 16:42 UTC.
Position N 33°50' E 135°04'.

Length 65 m; draft 4.5 m.

Type: Tanker. MMSI: 431402014.

Date/timePositionNaut miles runAvg speedWind from/ knotsBaromVisibWave heightAir tempDewpointWater temp
2018-Jul-22 11:50N 33°50' E 135°04'310.3
2018-Jul-22 11:30N 33°53' E 135°01'510.2
2018-Jul-22 11:00N 33°57' E 134°57'611.0
2018-Jul-22 10:30N 34°00' E 134°53'611.0
2018-Jul-22 10:00N 34°05' E 134°48'810.7
2018-Jul-22 09:15N 34°11' E 134°42'310.5
2018-Jul-22 09:00N 34°13' E 134°40'8 9.6
2018-Jul-22 08:10N 34°17' E 134°31'0 0.8
2018-Jul-22 07:46N 34°17' E 134°31'2 8.0
2018-Jul-22 07:28N 34°18' E 134°29'5 9.3
2018-Jul-22 06:58N 34°20' E 134°24'4 9.0
2018-Jul-22 06:29N 34°22' E 134°19'4 0.1
2018-Jul-20 06:23N 34°25' E 134°15'512.8
2018-Jul-20 06:00N 34°25' E 134°21'612.4
2018-Jul-20 05:30N 34°28' E 134°28'612.6
2018-Jul-20 05:00N 34°30' E 134°36'612.8
2018-Jul-20 04:30N 34°32' E 134°43'713.4
2018-Jul-20 04:00N 34°35' E 134°50'713.5
2018-Jul-20 03:30N 34°37' E 134°58'611.8
2018-Jul-20 03:00N 34°36' E 135°05'510.8
2018-Jul-20 02:31N 34°35' E 135°11'611.8
2018-Jul-20 01:59N 34°33' E 135°18'511.5
2018-Jul-20 01:31N 34°32' E 135°25'0 0.4
2018-Jul-20 01:01N 34°32' E 135°25'0 0.0
2018-Jul-20 00:31N 34°32' E 135°25'0 0.0
2018-Jul-19 23:45N 34°32' E 135°25'0 0.2
2018-Jul-19 23:09N 34°31' E 135°25'1 5.7
2018-Jul-19 22:59N 34°32' E 135°24'4 8.2
2018-Jul-19 22:30N 34°33' E 135°19'0 0.1
2018-Jul-19 21:54N 34°33' E 135°19'0 0.0
2018-Jul-19 21:30N 34°33' E 135°19'0 0.0
2018-Jul-19 20:54N 34°33' E 135°19'0 0.0
2018-Jul-19 20:30N 34°33' E 135°19'0 0.0
2018-Jul-19 20:00N 34°33' E 135°19'0 0.0
2018-Jul-19 19:30N 34°33' E 135°19'0 0.0
2018-Jul-19 19:00N 34°33' E 135°19'0 0.0
2018-Jul-19 18:30N 34°33' E 135°19'0 0.0
2018-Jul-19 18:00N 34°33' E 135°19'0 0.1
2018-Jul-19 17:18N 34°33' E 135°19'0 0.0
2018-Jul-19 17:00N 34°33' E 135°19'0 0.0
2018-Jul-19 16:12N 34°33' E 135°19'0 0.0
2018-Jul-19 15:18N 34°33' E 135°19'0 0.2
2018-Jul-19 15:00N 34°33' E 135°19'510.4
2018-Jul-19 14:30N 34°29' E 135°14'1211.9
2018-Jul-19 13:31N 34°20' E 135°05'612.2
2018-Jul-19 13:00N 34°14' E 135°03'612.0
2018-Jul-19 12:30N 34°08' E 135°03'612.1
2018-Jul-19 12:00N 34°02' E 135°03'611.8
2018-Jul-19 11:30N 33°56' E 135°02'224 9.7
2018-Jul-18 12:22N 34°58' E 139°24'3 9.1
2018-Jul-18 12:00N 34°60' E 139°27'5 9.8
2018-Jul-18 11:30N 35°03' E 139°32'1111.0
2018-Jul-18 10:31N 35°09' E 139°43'510.7
2018-Jul-18 10:01N 35°14' E 139°46'510.3
2018-Jul-18 09:30N 35°18' E 139°44'510.4
2018-Jul-18 09:00N 35°23' E 139°43'610.9
2018-Jul-18 08:30N 35°28' E 139°47'4 7.9
2018-Jul-18 08:00N 35°32' E 139°45'0 0.0
2018-Jul-18 07:30N 35°32' E 139°45'0 0.0
2018-Jul-18 07:01N 35°32' E 139°45'0 0.0
2018-Jul-18 06:30N 35°32' E 139°45'0 0.0
2018-Jul-18 06:00N 35°32' E 139°45'0 0.0
2018-Jul-18 05:31N 35°32' E 139°45'0 0.0
2018-Jul-18 05:00N 35°32' E 139°45'0 0.0
2018-Jul-18 04:29N 35°32' E 139°45'0 0.0
2018-Jul-18 04:01N 35°32' E 139°45'2 3.5
2018-Jul-18 03:30N 35°30' E 139°47'3 5.6
2018-Jul-18 03:01N 35°30' E 139°50'0 0.0
2018-Jul-18 02:29N 35°30' E 139°50'0 0.0
2018-Jul-18 02:01N 35°30' E 139°50'0 0.0
2018-Jul-18 01:31N 35°30' E 139°50'0 0.0
2018-Jul-18 01:00N 35°30' E 139°50'0 0.0
2018-Jul-18 00:30N 35°30' E 139°50'10 0.5
2018-Jul-17 05:24N 35°34' E 140°02'512.5
2018-Jul-17 04:59N 35°33' E 139°55'612.4
2018-Jul-17 04:31N 35°30' E 139°49'3 6.2
2018-Jul-17 04:00N 35°32' E 139°45'0 0.0
2018-Jul-17 03:31N 35°32' E 139°45'0 0.0
2018-Jul-17 03:00N 35°32' E 139°45'0 0.0
2018-Jul-17 02:31N 35°32' E 139°45'0 0.0
2018-Jul-17 02:01N 35°32' E 139°45'0 0.0
2018-Jul-17 01:30N 35°32' E 139°45'0 0.0
2018-Jul-17 00:55N 35°32' E 139°45'0 0.0
2018-Jul-17 00:30N 35°32' E 139°45'0 0.0
2018-Jul-16 23:23N 35°32' E 139°45'0 0.0
2018-Jul-16 22:55N 35°32' E 139°45'2 5.1
2018-Jul-16 22:29N 35°30' E 139°47'2 3.9
2018-Jul-16 22:00N 35°29' E 139°49'0 0.0
2018-Jul-16 21:30N 35°29' E 139°49'0 0.0
2018-Jul-16 21:01N 35°29' E 139°49'0 0.0
2018-Jul-16 20:31N 35°29' E 139°49'0 0.0
2018-Jul-16 20:00N 35°29' E 139°49'1 2.3
2018-Jul-16 19:31N 35°28' E 139°48'611.5
2018-Jul-16 19:01N 35°23' E 139°46'510.7
2018-Jul-16 18:30N 35°17' E 139°45'511.0
2018-Jul-16 18:01N 35°12' E 139°47'611.4
2018-Jul-16 17:30N 35°06' E 139°45'510.6
2018-Jul-16 17:00N 35°02' E 139°41'611.3
2018-Jul-16 16:30N 34°59' E 139°35'23410.0
2018-Jul-15 17:01N 33°48' E 135°05'111.0
2018-Jul-15 16:53N 33°49' E 135°03'410.9
2018-Jul-15 16:30N 33°52' E 135°00'511.0
2018-Jul-15 16:00N 33°57' E 134°56'611.1
2018-Jul-15 15:30N 34°01' E 134°52'610.9
2018-Jul-15 14:58N 34°06' E 134°47'611.0
2018-Jul-15 14:23N 34°11' E 134°43'410.4
2018-Jul-15 14:00N 34°14' E 134°39'6 9.6
2018-Jul-15 13:21N 34°17' E 134°33'3 5.1
2018-Jul-15 12:47N 34°18' E 134°30'1 1.1
2018-Jul-15 11:37N 34°17' E 134°31'0 1.2
2018-Jul-15 11:27N 34°17' E 134°31'4 8.9
2018-Jul-15 11:00N 34°19' E 134°26'5 9.6
2018-Jul-15 10:30N 34°21' E 134°21'510.2
2018-Jul-15 10:00N 34°23' E 134°15'7 0.2
2018-Jul-13 14:24N 34°22' E 134°24'2410.6
2018-Jul-13 12:10N 34°07' E 134°46'311.3
2018-Jul-13 11:52N 34°04' E 134°49'711.0
2018-Jul-13 11:11N 33°59' E 134°55'210.6
2018-Jul-13 11:00N 33°57' E 134°56'510.1
2018-Jul-13 10:29N 33°54' E 135°00'  
Track history (hours):
 
Tides and Currents Weather Stations Pressure Air Temp Water Temp Dewpoint Dewpoint Depression Visibility Wind Speed Wind Dir Waves Ship Positions

Koyo Maru No.12

Last reported at 2018-Jul-22 11:50 UTC. Time now 2018-Jul-22 16:42 UTC.
Position N 33°50' E 135°04'.

Length 65 m; draft 4.5 m.

Type: Tanker. MMSI: 431402014.

Date/timePositionNaut miles runAvg speedWind from/ knotsBaromVisibWave heightAir tempDewpointWater temp
2018-Jul-22 11:50N 33°50' E 135°04'310.3
2018-Jul-22 11:30N 33°53' E 135°01'510.2
2018-Jul-22 11:00N 33°57' E 134°57'611.0
2018-Jul-22 10:30N 34°00' E 134°53'611.0
2018-Jul-22 10:00N 34°05' E 134°48'810.7
2018-Jul-22 09:15N 34°11' E 134°42'310.5
2018-Jul-22 09:00N 34°13' E 134°40'8 9.6
2018-Jul-22 08:10N 34°17' E 134°31'0 0.8
2018-Jul-22 07:46N 34°17' E 134°31'2 8.0
2018-Jul-22 07:28N 34°18' E 134°29'5 9.3
2018-Jul-22 06:58N 34°20' E 134°24'4 9.0
2018-Jul-22 06:29N 34°22' E 134°19'4 0.1
2018-Jul-20 06:23N 34°25' E 134°15'512.8
2018-Jul-20 06:00N 34°25' E 134°21'612.4
2018-Jul-20 05:30N 34°28' E 134°28'612.6
2018-Jul-20 05:00N 34°30' E 134°36'612.8
2018-Jul-20 04:30N 34°32' E 134°43'713.4
2018-Jul-20 04:00N 34°35' E 134°50'713.5
2018-Jul-20 03:30N 34°37' E 134°58'611.8
2018-Jul-20 03:00N 34°36' E 135°05'510.8
2018-Jul-20 02:31N 34°35' E 135°11'611.8
2018-Jul-20 01:59N 34°33' E 135°18'511.5
2018-Jul-20 01:31N 34°32' E 135°25'0 0.4
2018-Jul-20 01:01N 34°32' E 135°25'0 0.0
2018-Jul-20 00:31N 34°32' E 135°25'0 0.0
2018-Jul-19 23:45N 34°32' E 135°25'0 0.2
2018-Jul-19 23:09N 34°31' E 135°25'1 5.7
2018-Jul-19 22:59N 34°32' E 135°24'4 8.2
2018-Jul-19 22:30N 34°33' E 135°19'0 0.1
2018-Jul-19 21:54N 34°33' E 135°19'0 0.0
2018-Jul-19 21:30N 34°33' E 135°19'0 0.0
2018-Jul-19 20:54N 34°33' E 135°19'0 0.0
2018-Jul-19 20:30N 34°33' E 135°19'0 0.0
2018-Jul-19 20:00N 34°33' E 135°19'0 0.0
2018-Jul-19 19:30N 34°33' E 135°19'0 0.0
2018-Jul-19 19:00N 34°33' E 135°19'0 0.0
2018-Jul-19 18:30N 34°33' E 135°19'0 0.0
2018-Jul-19 18:00N 34°33' E 135°19'0 0.1
2018-Jul-19 17:18N 34°33' E 135°19'0 0.0
2018-Jul-19 17:00N 34°33' E 135°19'0 0.0
2018-Jul-19 16:12N 34°33' E 135°19'0 0.0
2018-Jul-19 15:18N 34°33' E 135°19'0 0.2
2018-Jul-19 15:00N 34°33' E 135°19'510.4
2018-Jul-19 14:30N 34°29' E 135°14'1211.9
2018-Jul-19 13:31N 34°20' E 135°05'612.2
2018-Jul-19 13:00N 34°14' E 135°03'612.0
2018-Jul-19 12:30N 34°08' E 135°03'612.1
2018-Jul-19 12:00N 34°02' E 135°03'611.8
2018-Jul-19 11:30N 33°56' E 135°02'224 9.7
2018-Jul-18 12:22N 34°58' E 139°24'3 9.1
2018-Jul-18 12:00N 34°60' E 139°27'5 9.8
2018-Jul-18 11:30N 35°03' E 139°32'1111.0
2018-Jul-18 10:31N 35°09' E 139°43'510.7
2018-Jul-18 10:01N 35°14' E 139°46'510.3
2018-Jul-18 09:30N 35°18' E 139°44'510.4
2018-Jul-18 09:00N 35°23' E 139°43'610.9
2018-Jul-18 08:30N 35°28' E 139°47'4 7.9
2018-Jul-18 08:00N 35°32' E 139°45'0 0.0
2018-Jul-18 07:30N 35°32' E 139°45'0 0.0
2018-Jul-18 07:01N 35°32' E 139°45'0 0.0
2018-Jul-18 06:30N 35°32' E 139°45'0 0.0
2018-Jul-18 06:00N 35°32' E 139°45'0 0.0
2018-Jul-18 05:31N 35°32' E 139°45'0 0.0
2018-Jul-18 05:00N 35°32' E 139°45'0 0.0
2018-Jul-18 04:29N 35°32' E 139°45'0 0.0
2018-Jul-18 04:01N 35°32' E 139°45'2 3.5
2018-Jul-18 03:30N 35°30' E 139°47'3 5.6
2018-Jul-18 03:01N 35°30' E 139°50'0 0.0
2018-Jul-18 02:29N 35°30' E 139°50'0 0.0
2018-Jul-18 02:01N 35°30' E 139°50'0 0.0
2018-Jul-18 01:31N 35°30' E 139°50'0 0.0
2018-Jul-18 01:00N 35°30' E 139°50'0 0.0
2018-Jul-18 00:30N 35°30' E 139°50'10 0.5
2018-Jul-17 05:24N 35°34' E 140°02'512.5
2018-Jul-17 04:59N 35°33' E 139°55'612.4
2018-Jul-17 04:31N 35°30' E 139°49'3 6.2
2018-Jul-17 04:00N 35°32' E 139°45'0 0.0
2018-Jul-17 03:31N 35°32' E 139°45'0 0.0
2018-Jul-17 03:00N 35°32' E 139°45'0 0.0
2018-Jul-17 02:31N 35°32' E 139°45'0 0.0
2018-Jul-17 02:01N 35°32' E 139°45'0 0.0
2018-Jul-17 01:30N 35°32' E 139°45'0 0.0
2018-Jul-17 00:55N 35°32' E 139°45'0 0.0
2018-Jul-17 00:30N 35°32' E 139°45'0 0.0
2018-Jul-16 23:23N 35°32' E 139°45'0 0.0
2018-Jul-16 22:55N 35°32' E 139°45'2 5.1
2018-Jul-16 22:29N 35°30' E 139°47'2 3.9
2018-Jul-16 22:00N 35°29' E 139°49'0 0.0
2018-Jul-16 21:30N 35°29' E 139°49'0 0.0
2018-Jul-16 21:01N 35°29' E 139°49'0 0.0
2018-Jul-16 20:31N 35°29' E 139°49'0 0.0
2018-Jul-16 20:00N 35°29' E 139°49'1 2.3
2018-Jul-16 19:31N 35°28' E 139°48'611.5
2018-Jul-16 19:01N 35°23' E 139°46'510.7
2018-Jul-16 18:30N 35°17' E 139°45'511.0
2018-Jul-16 18:01N 35°12' E 139°47'611.4
2018-Jul-16 17:30N 35°06' E 139°45'510.6
2018-Jul-16 17:00N 35°02' E 139°41'611.3
2018-Jul-16 16:30N 34°59' E 139°35'23410.0
2018-Jul-15 17:01N 33°48' E 135°05'111.0
2018-Jul-15 16:53N 33°49' E 135°03'410.9
2018-Jul-15 16:30N 33°52' E 135°00'511.0
2018-Jul-15 16:00N 33°57' E 134°56'611.1
2018-Jul-15 15:30N 34°01' E 134°52'610.9
2018-Jul-15 14:58N 34°06' E 134°47'611.0
2018-Jul-15 14:23N 34°11' E 134°43'410.4
2018-Jul-15 14:00N 34°14' E 134°39'6 9.6
2018-Jul-15 13:21N 34°17' E 134°33'3 5.1
2018-Jul-15 12:47N 34°18' E 134°30'1 1.1
2018-Jul-15 11:37N 34°17' E 134°31'0 1.2
2018-Jul-15 11:27N 34°17' E 134°31'4 8.9
2018-Jul-15 11:00N 34°19' E 134°26'5 9.6
2018-Jul-15 10:30N 34°21' E 134°21'510.2
2018-Jul-15 10:00N 34°23' E 134°15'7 0.2
2018-Jul-13 14:24N 34°22' E 134°24'2410.6
2018-Jul-13 12:10N 34°07' E 134°46'311.3
2018-Jul-13 11:52N 34°04' E 134°49'711.0
2018-Jul-13 11:11N 33°59' E 134°55'210.6
2018-Jul-13 11:00N 33°57' E 134°56'510.1
2018-Jul-13 10:29N 33°54' E 135°00'  

Dump ship's entire track history